• Join FlightAware (Why Join?)
  • Login
  • US Flag 
06:17AM EDT


 

Airport Tracker/Info


-or-


 

Live Flight TrackerFlight Track Log ✈ OPT429 ✈ 03-Jul-2014 ✈ KCGF - C91

Flight Track Log - Related Links

Times and Time Zones

All times are in EDT time to prevent confusion due to time zone crossing. See the OPT429 flight status page for this flight to view local times or setup timezone preferences in your user account.

Time Position Orientation Groundspeed Altitude Reporting Facility
EDT Latitude Longitude Course Direction KTS MPH feet Rate Location/Type
04:23PM 41.5503 -81.5072 292° West 239 275 2,000  Level Cleveland Center
04:25PM 41.5714 -81.5778 292° West 173 199 5,100 2,280 Climbing Cleveland Center
04:26PM 41.5486 -81.6664 251° West 249 287 7,900 2,460 Climbing Cleveland Center
04:27PM 41.5203 -81.7708 250° West 294 338 10,600 1,920 Climbing Cleveland Center
04:31PM 41.3939 -82.2428 246° West 321 369 18,100 1,920 Climbing Cleveland Center
04:32PM 41.4119 -82.3528 282° West 299 344 20,700 2,100 Climbing Cleveland Center
04:34PM 41.4508 -82.5825 283° West 317 365 24,700 1,260 Climbing Cleveland Center
04:36PM 41.4933 -82.8394 288° West 368 423 26,000 300 Climbing Cleveland Center
04:38PM 41.5453 -83.1519 282° West 397 457 26,000  Level Cleveland Center
04:39PM 41.5700 -83.3014 283° West 397 457 26,000  Level Cleveland Center
04:40PM 41.5939 -83.4467 282° West 397 457 26,000 -660 Level Cleveland Center
04:43PM 41.6683 -83.8903 283° West 393 452 23,300 -900 Descending Chicago Center
04:44PM 41.6900 -84.0197 283° West 393 452 22,300 -1,380 Descending Cleveland Center
04:47PM 41.7392 -84.3033 283° West 378 435 19,200 -1,500 Descending Chicago Center
04:48PM 41.7664 -84.4636 283° West 369 425 17,600 -1,560 Descending Chicago Center
04:49PM 41.7842 -84.5717 282° West 370 426 16,200 -1,260 Descending Cleveland Center
04:50PM 41.8053 -84.7014 282° West 362 417 15,200 -1,380 Descending Cleveland Center
04:51PM 41.8314 -84.8553 283° West 360 414 13,400 -1,500 Descending Cleveland Center
04:53PM 41.8681 -85.0869 282° West 309 356 10,800 -1,320 Descending Chicago Center
04:53PM 41.8736 -85.1122 286° West 317 365 10,500 -1,140 Descending Chicago Center
04:54PM 41.8903 -85.2147 282° West 292 336 9,300 -1,140 Descending Chicago Center
04:55PM 41.9056 -85.3128 282° West 278 320 8,200 -1,080 Descending Chicago Center
04:58PM 41.9519 -85.5983 282° West 263 303 5,200 -1,020 Descending Cleveland Center
05:00PM 41.9789 -85.7772 282° West 243 280 3,200 -540 Descending Cleveland Center
05:02PM 41.9931 -85.9258 277° West 197 227 3,000 -120 Descending Cleveland Center
05:04PM 41.9833 -86.1167 270° West  Level FlightAware Approximate
05:11PM 41.9929 -86.1283 270° West  Level Estimated
05:12PM 41.9929 -86.1283 270° West  Level Estimated
05:13PM 41.9929 -86.1283 270° West  Level Estimated
05:14PM 41.9929 -86.1283 270° West  Level Estimated
05:15PM 41.9929 -86.1283 270° West  Level Estimated
05:16PM 41.9929 -86.1283 270° West  Level Estimated
05:17PM 41.9929 -86.1283 270° West  Level Estimated
05:18PM 41.9929 -86.1283 270° West  Level Estimated
05:19PM 41.9929 -86.1283 270° West  Level Estimated
05:20PM 41.9929 -86.1283 270° West  Level Estimated